| time (UTC) | temp F | wind direction | speed knots | gust knots | rain 1hr in | rain 24hr in | rain mn in | humidity % | barometer mb |
| 20260508174530 | 47 | 360 | 2.6 | 7.0 | 0.05 | 0.30 | 0.27 | 57 | 1014.1 |
| 20260508173029 | 45 | 360 | 1.7 | 5.2 | 0.08 | 0.30 | 0.27 | 61 | 1014.0 |
| 20260508171529 | 45 | 360 | 2.6 | 7.8 | 0.07 | 0.28 | 0.26 | 61 | 1014.2 |
| 20260508170029 | 44 | 360 | 0.9 | 8.7 | 0.05 | 0.27 | 0.24 | 60 | 1013.9 |
| 20260508164526 | 47 | 360 | 2.6 | 7.0 | 0.03 | 0.25 | 0.22 | 55 | 1014.0 |
| 20260508163027 | 48 | 360 | 0.0 | 2.6 | 0.00 | 0.22 | 0.19 | 52 | 1013.5 |
| 20260508161522 | 49 | 360 | 2.6 | 4.3 | 0.00 | 0.22 | 0.19 | 49 | 1013.3 |
| 20260508160019 | 48 | 360 | 0.9 | 5.2 | 0.00 | 0.22 | 0.19 | 51 | 1013.5 |
| 20260508154617 | 48 | 360 | 1.7 | 7.8 | 0.00 | 0.22 | 0.19 | 48 | 1013.6 |
| 20260508153017 | 47 | 360 | 2.6 | 9.6 | 0.00 | 0.22 | 0.19 | 50 | 1013.6 |
| 20260508151518 | 48 | 360 | 2.6 | 7.8 | 0.00 | 0.22 | 0.19 | 52 | 1013.8 |
| 20260508150021 | 47 | 224 | 3.5 | 9.6 | 0.00 | 0.22 | 0.19 | 55 | 1013.7 |
| 20260508144514 | 47 | 360 | 2.6 | 8.7 | 0.00 | 0.22 | 0.19 | 54 | 1013.7 |
| 20260508143012 | 49 | 360 | 2.6 | 4.3 | 0.00 | 0.22 | 0.19 | 55 | 1013.8 |
| 20260508141516 | 45 | 360 | 1.7 | 5.2 | 0.00 | 0.22 | 0.19 | 58 | 1014.0 |
| 20260508140018 | 44 | 360 | 1.7 | 5.2 | 0.00 | 0.22 | 0.19 | 62 | 1014.2 |
| 20260508134509 | 44 | 360 | 0.9 | 3.5 | 0.00 | 0.22 | 0.19 | 63 | 1014.3 |
| 20260508133008 | 44 | 360 | 2.6 | 6.1 | 0.00 | 0.22 | 0.19 | 66 | 1014.2 |
| 20260508131506 | 43 | 360 | 0.0 | 4.3 | 0.00 | 0.22 | 0.19 | 66 | 1014.0 |
| 20260508130006 | 43 | 360 | 0.9 | 3.5 | 0.00 | 0.22 | 0.19 | 66 | 1014.1 |
| 20260508124504 | 42 | 360 | 0.9 | 4.3 | 0.00 | 0.22 | 0.19 | 66 | 1014.2 |
| 20260508123004 | 42 | 360 | 0.9 | 3.5 | 0.00 | 0.22 | 0.19 | 66 | 1014.2 |
| 20260508121501 | 41 | 360 | 0.9 | 2.6 | 0.00 | 0.22 | 0.19 | 66 | 1014.1 |
| 20260508120101 | 40 | 360 | 0.9 | 2.6 | 0.00 | 0.22 | 0.19 | 65 | 1014.0 |
| 20260508114558 | 40 | 360 | 0.0 | 1.7 | 0.00 | 0.22 | 0.19 | 65 | 1014.1 |
| 20260508113105 | 39 | 360 | 0.9 | 2.6 | 0.00 | 0.22 | 0.19 | 65 | 1014.1 |
| 20260508111602 | 38 | 360 | 0.0 | 2.6 | 0.00 | 0.22 | 0.19 | 65 | 1014.0 |
| 20260508110052 | 38 | 360 | 0.0 | 1.7 | 0.00 | 0.22 | 0.19 | 64 | 1014.0 |
| 20260508104558 | 37 | 360 | 0.0 | 1.7 | 0.00 | 0.22 | 0.19 | 64 | 1013.9 |
| 20260508103050 | 37 | 360 | 0.0 | 0.0 | 0.00 | 0.22 | 0.19 | 63 | 1013.5 |
| 20260508101548 | 37 | 360 | 0.0 | 1.7 | 0.00 | 0.22 | 0.19 | 63 | 1013.6 |
| 20260508100044 | 38 | 360 | 0.0 | 2.6 | 0.00 | 0.22 | 0.19 | 63 | 1013.5 |
| 20260508094547 | 38 | 360 | 0.9 | 4.3 | 0.00 | 0.22 | 0.19 | 63 | 1013.5 |
| 20260508093050 | 36 | 360 | 0.0 | 0.9 | 0.00 | 0.22 | 0.19 | 59 | 1013.6 |
| 20260508091553 | 36 | 360 | 0.0 | 0.0 | 0.00 | 0.22 | 0.19 | 59 | 1013.4 |
| 20260508090052 | 37 | 360 | 0.0 | 0.0 | 0.00 | 0.22 | 0.19 | 59 | 1013.2 |
| 20260508084538 | 37 | 360 | 0.0 | 1.7 | 0.00 | 0.22 | 0.19 | 59 | 1013.2 |
| 20260508083036 | 36 | 360 | 0.0 | 0.9 | 0.00 | 0.22 | 0.19 | 58 | 1013.0 |
| 20260508081540 | 37 | 360 | 0.0 | 0.0 | 0.00 | 0.22 | 0.19 | 58 | 1012.9 |
| 20260508080042 | 37 | 360 | 0.0 | 0.9 | 0.00 | 0.22 | 0.19 | 57 | 1013.1 |
| 20260508074532 | 38 | 360 | 0.0 | 0.9 | 0.00 | 0.22 | 0.19 | 57 | 1013.0 |
| 20260508073038 | 38 | 360 | 0.0 | 0.9 | 0.00 | 0.22 | 0.19 | 57 | 1012.8 |
| 20260508071531 | 38 | 360 | 0.0 | 0.9 | 0.00 | 0.22 | 0.19 | 57 | 1012.9 |
| 20260508070040 | 39 | 360 | 0.0 | 0.9 | 0.00 | 0.22 | 0.19 | 57 | 1012.9 |
| 20260508064532 | 39 | 360 | 0.0 | 0.0 | 0.00 | 0.22 | 0.19 | 57 | 1012.9 |
| 20260508063024 | 40 | 360 | 0.0 | 0.0 | 0.01 | 0.22 | 0.19 | 57 | 1012.8 |
| 20260508061522 | 40 | 360 | 0.0 | 0.0 | 0.02 | 0.22 | 0.19 | 56 | 1012.9 |
| 20260508060024 | 41 | 360 | 0.0 | 0.0 | 0.06 | 0.22 | 0.19 | 56 | 1013.0 |
| 20260508054527 | 41 | 360 | 0.0 | 1.7 | 0.10 | 0.22 | 0.19 | 56 | 1013.1 |
| 20260508053018 | 41 | 360 | 0.0 | 2.6 | 0.12 | 0.21 | 0.18 | 56 | 1013.2 |
| 20260508051517 | 41 | 360 | 0.9 | 5.2 | 0.15 | 0.20 | 0.17 | 56 | 1013.4 |
| 20260508050012 | 42 | 360 | 0.0 | 2.6 | 0.13 | 0.16 | 0.13 | 56 | 1013.7 |
| 20260508044509 | 43 | 360 | 0.9 | 7.8 | 0.11 | 0.12 | 0.09 | 58 | 1013.4 |
| 20260508043005 | 44 | 360 | 0.9 | 4.3 | 0.09 | 0.09 | 0.06 | 57 | 1013.3 |
| 20260508041601 | 45 | 360 | 0.0 | 4.3 | 0.06 | 0.06 | 0.03 | 56 | 1013.1 |
| 20260508040100 | 47 | 360 | 0.0 | 7.0 | 0.03 | 0.03 | 0.00 | 54 | 1012.6 |
| 20260508034556 | 48 | 360 | 0.9 | 3.5 | 0.01 | 0.01 | 0.01 | 50 | 1012.1 |
| 20260508033114 | 49 | 360 | 0.0 | 0.9 | 0.00 | 0.00 | 0.00 | 43 | 1011.2 |
| 20260508031555 | 49 | 360 | 0.0 | 0.9 | 0.00 | 0.00 | 0.00 | 43 | 1010.9 |
| 20260508030108 | 49 | 59 | 0.9 | 3.5 | 0.00 | 0.00 | 0.00 | 43 | 1011.0 |
| 20260508024654 | 49 | 360 | 0.0 | 1.7 | 0.00 | 0.00 | 0.00 | 44 | 1011.0 |
| 20260508023054 | 50 | 360 | 0.0 | 3.5 | 0.00 | 0.00 | 0.00 | 45 | 1011.0 |
| 20260508021553 | 50 | 53 | 0.9 | 2.6 | 0.00 | 0.00 | 0.00 | 44 | 1011.1 |
| 20260508020106 | 50 | 31 | 0.0 | 0.9 | 0.00 | 0.00 | 0.00 | 45 | 1011.0 |
| 20260508014559 | 50 | 27 | 0.0 | 1.7 | 0.00 | 0.00 | 0.00 | 45 | 1010.9 |
| 20260508013104 | 51 | 21 | 0.9 | 2.6 | 0.00 | 0.00 | 0.00 | 41 | 1010.8 |
| 20260508011554 | 51 | 309 | 0.0 | 2.6 | 0.00 | 0.00 | 0.00 | 41 | 1010.6 |
| 20260508010054 | 51 | 309 | 0.0 | 2.6 | 0.00 | 0.00 | 0.00 | 41 | 1010.5 |
| 20260508004648 | 51 | 315 | 0.0 | 2.6 | 0.00 | 0.00 | 0.00 | 40 | 1010.3 |
| 20260508003048 | 52 | 315 | 0.0 | 4.3 | 0.00 | 0.00 | 0.00 | 39 | 1010.2 |
| 20260508001554 | 52 | 326 | 0.0 | 1.7 | 0.00 | 0.00 | 0.00 | 38 | 1010.2 |
| 20260508000048 | 53 | 317 | 0.0 | 1.7 | 0.00 | 0.00 | 0.00 | 37 | 1010.0 |
| 20260507234547 | 53 | 324 | 0.0 | 1.7 | 0.00 | 0.00 | 0.00 | 37 | 1010.0 |
| 20260507233046 | 54 | 323 | 0.0 | 1.7 | 0.00 | 0.00 | 0.00 | 35 | 1009.7 |
| 20260507231547 | 54 | 324 | 0.0 | 2.6 | 0.00 | 0.00 | 0.00 | 35 | 1009.8 |
| 20260507230046 | 54 | 57 | 0.0 | 2.6 | 0.00 | 0.00 | 0.00 | 34 | 1010.0 |
| 20260507224545 | 55 | 254 | 0.0 | 1.7 | 0.00 | 0.00 | 0.00 | 35 | 1009.8 |
| 20260507223044 | 55 | 253 | 0.9 | 2.6 | 0.00 | 0.00 | 0.00 | 32 | 1009.7 |
| 20260507221543 | 56 | 32 | 0.9 | 5.2 | 0.00 | 0.00 | 0.00 | 34 | 1009.6 |
| 20260507220042 | 55 | 112 | 0.9 | 2.6 | 0.00 | 0.00 | 0.00 | 31 | 1009.7 |
| 20260507214546 | 56 | 63 | 0.0 | 3.5 | 0.00 | 0.01 | 0.00 | 32 | 1009.9 |
| 20260507213050 | 56 | 27 | 1.7 | 5.2 | 0.00 | 0.01 | 0.00 | 34 | 1009.9 |
| 20260507211548 | 57 | 65 | 3.5 | 8.7 | 0.00 | 0.01 | 0.00 | 28 | 1010.0 |
| 20260507210041 | 56 | 65 | 1.7 | 7.0 | 0.00 | 0.01 | 0.00 | 35 | 1009.8 |
| 20260507204539 | 57 | 186 | 0.0 | 4.3 | 0.00 | 0.01 | 0.00 | 31 | 1009.8 |
| 20260507203037 | 56 | 238 | 1.7 | 6.1 | 0.00 | 0.01 | 0.00 | 35 | 1009.9 |
| 20260507201543 | 56 | 57 | 2.6 | 6.1 | 0.00 | 0.01 | 0.00 | 31 | 1010.1 |
| 20260507200041 | 57 | 246 | 1.7 | 7.8 | 0.00 | 0.01 | 0.00 | 30 | 1010.1 |
| 20260507194533 | 56 | 317 | 0.9 | 7.0 | 0.00 | 0.01 | 0.00 | 32 | 1010.1 |
| 20260507193039 | 56 | 291 | 1.7 | 7.8 | 0.00 | 0.01 | 0.00 | 34 | 1010.4 |
| 20260507191531 | 58 | 302 | 1.7 | 7.0 | 0.00 | 0.01 | 0.00 | 34 | 1010.3 |
| 20260507190029 | 58 | 250 | 2.6 | 7.0 | 0.00 | 0.01 | 0.00 | 29 | 1010.4 |
| 20260507184527 | 56 | 331 | 2.6 | 6.1 | 0.00 | 0.01 | 0.00 | 32 | 1010.6 |
| 20260507183031 | 56 | 294 | 1.7 | 8.7 | 0.00 | 0.01 | 0.00 | 30 | 1010.8 |
| 20260507181524 | 57 | 250 | 1.7 | 7.8 | 0.00 | 0.01 | 0.00 | 35 | 1010.9 |
| 20260507180038 | 56 | 17 | 0.9 | 7.8 | 0.00 | 0.01 | 0.00 | 33 | 1011.1 |